createdAt,value
2019-05-13T00:02:37.237Z,7.40
2019-05-13T00:08:38.686Z,10.15
2019-05-13T00:14:40.196Z,4.17
2019-05-13T00:20:44.114Z,6.62
2019-05-13T00:26:45.487Z,9.38
2019-05-13T00:32:47.154Z,5.75
2019-05-13T00:38:48.983Z,6.05
2019-05-13T00:44:50.505Z,11.63
2019-05-13T00:50:54.256Z,7.60
2019-05-13T00:56:55.618Z,7.35
2019-05-13T01:02:57.107Z,11.88
2019-05-13T01:08:58.628Z,12.55
2019-05-13T01:15:08.981Z,6.78
2019-05-13T01:21:13.252Z,10.00
2019-05-13T01:27:14.957Z,9.03
2019-05-13T01:33:16.602Z,8.38
2019-05-13T01:39:18.218Z,4.75
2019-05-13T01:45:19.769Z,8.50
2019-05-13T01:51:23.860Z,5.05
2019-05-13T01:57:25.130Z,7.78
2019-05-13T02:03:28.562Z,9.13
2019-05-13T02:09:30.749Z,4.65
2019-05-13T02:15:33.773Z,9.73
2019-05-13T02:21:35.327Z,7.83
2019-05-13T02:27:36.879Z,12.20
2019-05-13T02:33:38.596Z,11.85
2019-05-13T02:39:42.760Z,8.20
2019-05-13T02:45:44.478Z,14.85
2019-05-13T02:51:46.110Z,12.60
2019-05-13T02:57:47.663Z,12.75
2019-05-13T03:03:52.892Z,6.80
2019-05-13T03:09:54.382Z,20.72
2019-05-13T03:16:06.537Z,5.97
2019-05-13T03:22:08.581Z,14.85
2019-05-13T03:28:13.214Z,7.62
2019-05-13T03:34:15.849Z,11.55
2019-05-13T03:40:16.765Z,11.28
2019-05-13T03:46:22.706Z,12.98
2019-05-13T03:52:24.700Z,10.00
2019-05-13T03:58:26.797Z,11.83
2019-05-13T04:04:28.415Z,15.80
2019-05-13T04:10:33.137Z,22.65
2019-05-13T04:16:33.779Z,15.38
2019-05-13T04:22:35.434Z,10.68
2019-05-13T04:28:37.019Z,11.30
2019-05-13T04:34:41.523Z,11.70
2019-05-13T04:40:42.629Z,10.78
2019-05-13T04:46:45.447Z,23.15
2019-05-13T04:52:52.287Z,33.78
2019-05-13T04:58:53.011Z,18.77
2019-05-13T05:05:04.474Z,14.43
2019-05-13T05:11:21.969Z,7.83
2019-05-13T05:17:42.959Z,13.30
2019-05-13T05:23:51.556Z,11.12
2019-05-13T05:30:06.123Z,17.17
2019-05-13T05:36:23.125Z,16.02
2019-05-13T05:42:27.990Z,13.25
2019-05-13T05:48:33.109Z,17.35
2019-05-13T05:54:36.897Z,8.93
2019-05-13T06:00:41.521Z,15.93
2019-05-13T06:06:45.129Z,18.20
2019-05-13T06:12:47.215Z,16.02
2019-05-13T06:18:48.753Z,11.97
2019-05-13T06:24:52.176Z,14.63
2019-05-13T06:30:53.572Z,23.83
2019-05-13T06:36:55.264Z,20.97
2019-05-13T06:42:56.739Z,14.03
2019-05-13T06:49:02.691Z,12.93
2019-05-13T06:55:07.286Z,13.98
2019-05-13T07:01:11.393Z,18.35
2019-05-13T07:07:17.301Z,14.47
2019-05-13T07:13:18.263Z,14.10
2019-05-13T07:19:19.895Z,17.65
2019-05-13T07:25:22.271Z,16.30
2019-05-13T07:31:23.799Z,16.23
2019-05-13T07:37:25.606Z,18.65
2019-05-13T07:43:27.146Z,14.55
2019-05-13T07:49:28.637Z,16.00
2019-05-13T07:55:31.599Z,12.25
2019-05-13T08:01:33.176Z,14.83
2019-05-13T08:07:34.633Z,16.30
2019-05-13T08:13:36.463Z,11.93
2019-05-13T08:19:41.384Z,14.07
2019-05-13T08:25:42.950Z,10.48
2019-05-13T08:31:44.667Z,13.25
2019-05-13T08:37:46.206Z,17.30
2019-05-13T08:43:47.753Z,8.50
2019-05-13T08:49:51.843Z,14.53
2019-05-13T08:55:52.611Z,9.90
2019-05-13T09:01:54.205Z,9.15
2019-05-13T09:07:56.224Z,7.92
2019-05-13T09:13:58.001Z,11.80
2019-05-13T09:19:59.671Z,7.17
2019-05-13T09:26:02.555Z,12.78
2019-05-13T09:32:04.509Z,9.88
2019-05-13T09:38:07.379Z,9.68
2019-05-13T09:44:09.065Z,12.33
2019-05-13T09:50:28.049Z,8.95
2019-05-13T09:56:14.410Z,10.43
2019-05-13T10:02:18.365Z,7.70
2019-05-13T10:08:21.927Z,4.47
2019-05-13T10:14:23.489Z,5.72
2019-05-13T10:20:44.064Z,4.85
2019-05-13T10:26:45.917Z,5.58
2019-05-13T10:32:47.477Z,4.85
2019-05-13T10:38:49.067Z,3.47
2019-05-13T10:44:52.209Z,4.70
2019-05-13T10:50:53.979Z,5.92
2019-05-13T10:56:59.514Z,4.47
2019-05-13T11:02:59.098Z,5.22
2019-05-13T11:09:02.012Z,4.33
2019-05-13T11:15:05.837Z,5.50
2019-05-13T11:21:07.347Z,4.00
2019-05-13T11:27:11.791Z,2.75
2019-05-13T11:33:12.275Z,4.53
2019-05-13T11:39:17.553Z,5.92
2019-05-13T11:45:22.286Z,1.55
2019-05-13T11:51:26.086Z,5.97
2019-05-13T11:57:31.567Z,4.92
2019-05-13T12:03:33.283Z,4.15
2019-05-13T12:09:34.748Z,2.72
2019-05-13T12:15:45.899Z,3.12
2019-05-13T12:21:43.203Z,3.80
2019-05-13T12:27:42.970Z,4.67
2019-05-13T12:33:44.577Z,9.08
2019-05-13T12:39:46.135Z,4.62
2019-05-13T12:45:47.782Z,3.77
2019-05-13T12:51:51.780Z,8.98
2019-05-13T12:57:53.540Z,6.53
2019-05-13T13:03:55.045Z,5.42
2019-05-13T13:09:56.737Z,6.90
2019-05-13T13:16:03.593Z,3.02
2019-05-13T13:22:07.907Z,6.15
2019-05-13T13:28:12.071Z,3.67
2019-05-13T13:34:17.303Z,3.90
2019-05-13T13:40:20.263Z,4.30
2019-05-13T13:52:22.677Z,4.50
2019-05-13T13:58:25.677Z,4.65
2019-05-13T14:04:27.423Z,5.00
2019-05-13T14:06:58.778Z,4.25
2019-05-13T14:10:31.861Z,3.15
2019-05-13T14:16:35.165Z,7.10
2019-05-13T14:22:37.028Z,4.95
2019-05-13T14:28:38.539Z,3.17
2019-05-13T14:34:42.055Z,4.92
2019-05-13T14:40:46.638Z,6.15
2019-05-13T14:46:48.353Z,7.47
2019-05-13T14:52:52.253Z,8.93
2019-05-13T14:58:53.299Z,7.03
2019-05-13T15:04:54.786Z,3.95
2019-05-13T15:10:56.237Z,1.47
2019-05-13T15:17:03.057Z,3.83
2019-05-13T15:23:01.211Z,2.58
2019-05-13T15:29:05.110Z,2.77
2019-05-13T15:35:09.851Z,2.83
2019-05-13T15:41:14.657Z,3.37
2019-05-13T15:47:22.868Z,4.80
2019-05-13T15:53:17.165Z,4.05
2019-05-13T15:59:18.921Z,4.78
2019-05-13T16:05:21.073Z,5.42
2019-05-13T16:11:22.577Z,7.30
2019-05-13T16:17:37.956Z,4.17
2019-05-13T16:23:32.017Z,3.70
2019-05-13T16:29:32.868Z,5.62
2019-05-13T16:35:34.735Z,6.00
2019-05-13T16:41:37.958Z,4.50
2019-05-13T16:47:56.178Z,5.60
2019-05-13T16:53:43.774Z,6.35
2019-05-13T16:59:46.230Z,4.53
2019-05-13T17:05:47.714Z,7.55
2019-05-13T17:11:49.295Z,2.67
2019-05-13T17:17:51.472Z,4.50
2019-05-13T17:23:53.197Z,7.30
2019-05-13T17:29:54.825Z,4.85
2019-05-13T17:35:56.624Z,5.92
2019-05-13T17:42:01.447Z,4.75
2019-05-13T17:48:03.153Z,5.72
2019-05-13T17:54:04.814Z,3.33
2019-05-13T18:00:07.334Z,2.90
2019-05-13T18:06:08.822Z,3.83
2019-05-13T18:12:11.526Z,2.47
2019-05-13T18:18:13.802Z,4.35
2019-05-13T18:24:16.181Z,6.00
2019-05-13T18:30:18.094Z,2.72
2019-05-13T18:36:22.122Z,4.78
2019-05-13T18:42:23.246Z,4.12
2019-05-13T18:48:26.193Z,2.10
2019-05-13T18:54:31.357Z,3.70
2019-05-13T19:00:32.190Z,3.17
2019-05-13T19:06:33.908Z,2.65
2019-05-13T19:12:35.545Z,5.22
2019-05-13T19:18:37.163Z,4.55
2019-05-13T19:24:38.671Z,2.87
2019-05-13T19:30:41.201Z,7.95
2019-05-13T19:36:47.497Z,4.62
2019-05-13T19:42:51.066Z,4.00
2019-05-13T19:48:55.662Z,5.50
2019-05-13T19:54:57.311Z,6.67
2019-05-13T20:00:58.784Z,4.15
2019-05-13T20:07:00.434Z,6.47
2019-05-13T20:13:01.976Z,2.20
2019-05-13T20:19:03.831Z,6.25
2019-05-13T20:25:10.191Z,3.55
2019-05-13T20:31:11.194Z,5.90
2019-05-13T20:37:12.642Z,5.60
2019-05-13T20:43:14.154Z,3.02
2019-05-13T20:49:15.647Z,2.37
2019-05-13T20:55:17.203Z,5.10
2019-05-13T21:01:20.652Z,3.67
2019-05-13T21:07:22.024Z,3.15
2019-05-13T21:13:23.566Z,1.98
2019-05-13T21:19:25.144Z,4.50
2019-05-13T21:25:26.994Z,2.77
2019-05-13T21:31:29.737Z,4.37
2019-05-13T21:37:31.187Z,5.22
2019-05-13T21:43:37.243Z,3.35
2019-05-13T21:49:38.711Z,3.02
2019-05-13T21:55:41.484Z,8.93
2019-05-13T22:01:43.195Z,5.92
2019-05-13T22:07:44.793Z,2.65
2019-05-13T22:13:51.247Z,5.33
2019-05-13T22:19:55.691Z,2.77
2019-05-13T22:25:57.298Z,3.75
2019-05-13T22:32:02.080Z,4.20
2019-05-13T22:38:04.233Z,7.37
2019-05-13T22:44:05.929Z,3.58
2019-05-13T22:50:07.643Z,4.28
2019-05-13T22:56:10.280Z,4.33
2019-05-13T23:02:11.754Z,2.45
2019-05-13T23:08:13.419Z,3.83
2019-05-13T23:14:15.024Z,4.67
2019-05-13T23:20:16.697Z,3.37
2019-05-13T23:26:21.185Z,7.08
2019-05-13T23:32:22.670Z,4.15
2019-05-13T23:38:24.086Z,4.90
2019-05-13T23:44:28.260Z,4.67
2019-05-13T23:50:28.920Z,6.08
2019-05-13T23:56:31.113Z,7.95
